Norwegian Epic — C6XP7 — position and weather

sailwx.info

Track history (hours):
 
Tides and Currents Weather Stations Pressure Air Temp Water Temp Dewpoint Dewpoint Depression Visibility Wind Speed Wind Dir Waves Ship Positions

Norwegian Epic

Last reported at 2016-May-26 17:33 UTC. Time now 2016-May-26 18:30 UTC.
Position N 43°33' E 010°18'.

Length 329 m; draft 9.3 m.

Type: Passenger vessel. MMSI: 311018500.

Date/timePositionNaut miles runAvg speedWind from/ knotsBaromVisibWave heightAir tempDewpointWater temp
2016-May-26 17:33N 43°33' E 010°18'0 0.3
2016-May-26 16:33N 43°34' E 010°18'0 0.0
2016-May-26 15:31N 43°34' E 010°18'0 0.0
2016-May-26 14:31N 43°34' E 010°18'0 0.0
2016-May-26 13:32N 43°34' E 010°18'0 0.0
2016-May-26 12:27N 43°34' E 010°18'0 0.0
2016-May-26 11:30N 43°34' E 010°18'0 0.0
2016-May-26 10:31N 43°34' E 010°18'0 0.0
2016-May-26 09:32N 43°34' E 010°18'0 0.0
2016-May-26 08:32N 43°34' E 010°18'0 0.0
2016-May-26 07:33N 43°34' E 010°18'0 0.0
2016-May-26 06:33N 43°34' E 010°18'0 0.0
2016-May-26 05:31N 43°34' E 010°18'0 0.1
2016-May-26 04:33N 43°34' E 010°18'8 8.4
2016-May-26 03:33N 43°26' E 010°12'1313.4
2016-May-26 02:33N 43°13' E 010°07'1716.8
2016-May-26 01:34N 42°57' E 010°01'1717.4
2016-May-26 00:34N 42°40' E 009°55'1717.5
2016-May-25 23:34N 42°23' E 009°55'1615.8
2016-May-25 22:33N 42°12' E 010°11'3316.5
2016-May-25 20:33N 42°01' E 010°53'1414.3
2016-May-25 19:33N 41°58' E 011°12'94 4.3
2016-May-24 21:33N 40°53' E 012°42'2019.3
2016-May-24 20:32N 40°43' E 013°04'1919.4
2016-May-24 19:33N 40°40' E 013°29'1919.2
2016-May-24 18:33N 40°38' E 013°54'1818.0
2016-May-24 17:33N 40°47' E 014°15'4 0.3
2016-May-24 04:33N 40°50' E 014°16'5 5.5
2016-May-24 03:34N 40°45' E 014°13'1312.8
2016-May-24 02:34N 40°39' E 013°59'1413.6
2016-May-24 01:33N 40°39' E 013°41'1413.7
2016-May-24 00:33N 40°40' E 013°23'1613.8
2016-May-23 23:24N 40°42' E 013°02'44616.0
2016-May-22 19:33N 41°16' E 003°13'1515.2
2016-May-22 18:33N 41°16' E 002°52'1616.3
2016-May-22 17:33N 41°16' E 002°31'1615.5
2016-May-22 16:32N 41°19' E 002°10'3 0.9
2016-May-22 13:30N 41°22' E 002°11'0 0.0
2016-May-22 05:12N 41°22' E 002°11'0 0.0
2016-May-22 04:30N 41°22' E 002°11'3 1.1
2016-May-22 02:13N 41°19' E 002°10'6 8.6
2016-May-22 01:33N 41°18' E 002°18'1716.5
2016-May-22 00:33N 41°26' E 002°37'1716.7
2016-May-21 23:32N 41°35' E 002°56'1616.4
2016-May-21 22:33N 41°44' E 003°14'1916.7
2016-May-21 21:25N 41°58' E 003°32'1416.9
2016-May-21 20:33N 42°08' E 003°45'1916.6
2016-May-21 19:23N 42°22' E 004°04'2116.9
2016-May-21 18:08N 42°37' E 004°24'1016.6
2016-May-21 17:33N 42°44' E 004°33'1616.4
2016-May-21 16:33N 42°56' E 004°48'1616.4
2016-May-21 15:33N 43°07' E 005°04'1515.1
2016-May-21 14:33N 43°20' E 005°16'3 3.0
2016-May-21 13:32N 43°21' E 005°20'0 0.0
2016-May-21 12:32N 43°21' E 005°20'0 0.0
2016-May-21 11:30N 43°21' E 005°20'0 0.0
2016-May-21 10:31N 43°21' E 005°20'0 0.0
2016-May-21 09:28N 43°21' E 005°20'0 0.0
2016-May-21 08:26N 43°21' E 005°20'0 0.0
2016-May-21 07:33N 43°21' E 005°20'0 0.0
2016-May-21 06:33N 43°21' E 005°20'0 0.0
2016-May-21 05:31N 43°21' E 005°20'0 0.0
2016-May-21 04:33N 43°21' E 005°20'4 4.2
2016-May-21 03:33N 43°19' E 005°15'10 9.8
2016-May-21 02:33N 43°10' E 005°11'2110.7
2016-May-21 00:33N 42°59' E 005°36'6210.3
2016-May-20 18:29N 43°10' E 007°00'1213.0
2016-May-20 17:33N 43°22' E 007°00'1010.1
2016-May-20 16:33N 43°32' E 007°01'0 0.1
2016-May-20 15:33N 43°32' E 007°01'0 0.0
2016-May-20 14:33N 43°32' E 007°01'0 0.0
2016-May-20 13:33N 43°32' E 007°01'0 0.0
2016-May-20 12:33N 43°32' E 007°01'0 0.0
2016-May-20 11:33N 43°32' E 007°01'0 0.0
2016-May-20 10:33N 43°32' E 007°01'0 0.0
2016-May-20 09:33N 43°32' E 007°01'0 0.0
2016-May-20 08:33N 43°32' E 007°01'0 0.0
2016-May-20 07:33N 43°32' E 007°01'0 0.0
2016-May-20 06:33N 43°32' E 007°01'0 0.0
2016-May-20 05:33N 43°32' E 007°01'0 0.0
2016-May-20 04:33N 43°32' E 007°01'5 5.2
2016-May-20 03:33N 43°28' E 007°05'1211.6
2016-May-20 02:33N 43°28' E 007°21'1211.8
2016-May-20 01:33N 43°29' E 007°37'2311.6
2016-May-19 23:33N 43°29' E 008°09'1514.9
2016-May-19 22:33N 43°30' E 008°30'1716.8
2016-May-19 21:33N 43°30' E 008°53'1615.8
2016-May-19 20:33N 43°31' E 009°15'1615.6
2016-May-19 19:33N 43°31' E 009°36'1615.8
2016-May-19 18:34N 43°31' E 009°58'1413.6
2016-May-19 17:34N 43°32' E 010°17'1 1.5
2016-May-19 16:34N 43°33' E 010°18'0 0.0
2016-May-19 15:31N 43°33' E 010°18'0 0.0
2016-May-19 14:32N 43°33' E 010°18'0 0.0
2016-May-19 13:33N 43°33' E 010°18'0 0.0
2016-May-19 12:33N 43°33' E 010°18'0 0.0
2016-May-19 11:31N 43°33' E 010°18'0 0.0
2016-May-19 10:32N 43°33' E 010°18'0 0.0
2016-May-19 09:29N 43°33' E 010°18'0 0.0
2016-May-19 08:30N 43°33' E 010°18'0 0.0
2016-May-19 07:34N 43°33' E 010°18'0 0.0
2016-May-19 06:31N 43°33' E 010°18'0 0.0
2016-May-19 05:32N 43°33' E 010°18'0 0.3
2016-May-19 04:34N 43°33' E 010°18'8 8.1
2016-May-19 03:34N 43°26' E 010°12'1413.8
2016-May-19 02:33N 43°13' E 010°07'204 6.7
2016-May-17 20:15N 40°43' E 013°12'1519.5
2016-May-17 19:30N 40°40' E 013°31'1919.6
2016-May-17 18:33N 40°38' E 013°56'1817.8
2016-May-17 17:33N 40°47' E 014°16'3 3.1
2016-May-17 16:33N 40°50' E 014°16'0 0.0
2016-May-17 15:33N 40°50' E 014°16'0 0.0
2016-May-17 14:33N 40°50' E 014°16'0 0.0
2016-May-17 13:33N 40°50' E 014°16'0 0.0
2016-May-17 12:33N 40°50' E 014°16'  
Track history (hours):
 
Tides and Currents Weather Stations Pressure Air Temp Water Temp Dewpoint Dewpoint Depression Visibility Wind Speed Wind Dir Waves Ship Positions

Norwegian Epic

Last reported at 2016-May-26 17:33 UTC. Time now 2016-May-26 18:30 UTC.
Position N 43°33' E 010°18'.

Length 329 m; draft 9.3 m.

Type: Passenger vessel. MMSI: 311018500.

Date/timePositionNaut miles runAvg speedWind from/ knotsBaromVisibWave heightAir tempDewpointWater temp
2016-May-26 17:33N 43°33' E 010°18'0 0.3
2016-May-26 16:33N 43°34' E 010°18'0 0.0
2016-May-26 15:31N 43°34' E 010°18'0 0.0
2016-May-26 14:31N 43°34' E 010°18'0 0.0
2016-May-26 13:32N 43°34' E 010°18'0 0.0
2016-May-26 12:27N 43°34' E 010°18'0 0.0
2016-May-26 11:30N 43°34' E 010°18'0 0.0
2016-May-26 10:31N 43°34' E 010°18'0 0.0
2016-May-26 09:32N 43°34' E 010°18'0 0.0
2016-May-26 08:32N 43°34' E 010°18'0 0.0
2016-May-26 07:33N 43°34' E 010°18'0 0.0
2016-May-26 06:33N 43°34' E 010°18'0 0.0
2016-May-26 05:31N 43°34' E 010°18'0 0.1
2016-May-26 04:33N 43°34' E 010°18'8 8.4
2016-May-26 03:33N 43°26' E 010°12'1313.4
2016-May-26 02:33N 43°13' E 010°07'1716.8
2016-May-26 01:34N 42°57' E 010°01'1717.4
2016-May-26 00:34N 42°40' E 009°55'1717.5
2016-May-25 23:34N 42°23' E 009°55'1615.8
2016-May-25 22:33N 42°12' E 010°11'3316.5
2016-May-25 20:33N 42°01' E 010°53'1414.3
2016-May-25 19:33N 41°58' E 011°12'94 4.3
2016-May-24 21:33N 40°53' E 012°42'2019.3
2016-May-24 20:32N 40°43' E 013°04'1919.4
2016-May-24 19:33N 40°40' E 013°29'1919.2
2016-May-24 18:33N 40°38' E 013°54'1818.0
2016-May-24 17:33N 40°47' E 014°15'4 0.3
2016-May-24 04:33N 40°50' E 014°16'5 5.5
2016-May-24 03:34N 40°45' E 014°13'1312.8
2016-May-24 02:34N 40°39' E 013°59'1413.6
2016-May-24 01:33N 40°39' E 013°41'1413.7
2016-May-24 00:33N 40°40' E 013°23'1613.8
2016-May-23 23:24N 40°42' E 013°02'44616.0
2016-May-22 19:33N 41°16' E 003°13'1515.2
2016-May-22 18:33N 41°16' E 002°52'1616.3
2016-May-22 17:33N 41°16' E 002°31'1615.5
2016-May-22 16:32N 41°19' E 002°10'3 0.9
2016-May-22 13:30N 41°22' E 002°11'0 0.0
2016-May-22 05:12N 41°22' E 002°11'0 0.0
2016-May-22 04:30N 41°22' E 002°11'3 1.1
2016-May-22 02:13N 41°19' E 002°10'6 8.6
2016-May-22 01:33N 41°18' E 002°18'1716.5
2016-May-22 00:33N 41°26' E 002°37'1716.7
2016-May-21 23:32N 41°35' E 002°56'1616.4
2016-May-21 22:33N 41°44' E 003°14'1916.7
2016-May-21 21:25N 41°58' E 003°32'1416.9
2016-May-21 20:33N 42°08' E 003°45'1916.6
2016-May-21 19:23N 42°22' E 004°04'2116.9
2016-May-21 18:08N 42°37' E 004°24'1016.6
2016-May-21 17:33N 42°44' E 004°33'1616.4
2016-May-21 16:33N 42°56' E 004°48'1616.4
2016-May-21 15:33N 43°07' E 005°04'1515.1
2016-May-21 14:33N 43°20' E 005°16'3 3.0
2016-May-21 13:32N 43°21' E 005°20'0 0.0
2016-May-21 12:32N 43°21' E 005°20'0 0.0
2016-May-21 11:30N 43°21' E 005°20'0 0.0
2016-May-21 10:31N 43°21' E 005°20'0 0.0
2016-May-21 09:28N 43°21' E 005°20'0 0.0
2016-May-21 08:26N 43°21' E 005°20'0 0.0
2016-May-21 07:33N 43°21' E 005°20'0 0.0
2016-May-21 06:33N 43°21' E 005°20'0 0.0
2016-May-21 05:31N 43°21' E 005°20'0 0.0
2016-May-21 04:33N 43°21' E 005°20'4 4.2
2016-May-21 03:33N 43°19' E 005°15'10 9.8
2016-May-21 02:33N 43°10' E 005°11'2110.7
2016-May-21 00:33N 42°59' E 005°36'6210.3
2016-May-20 18:29N 43°10' E 007°00'1213.0
2016-May-20 17:33N 43°22' E 007°00'1010.1
2016-May-20 16:33N 43°32' E 007°01'0 0.1
2016-May-20 15:33N 43°32' E 007°01'0 0.0
2016-May-20 14:33N 43°32' E 007°01'0 0.0
2016-May-20 13:33N 43°32' E 007°01'0 0.0
2016-May-20 12:33N 43°32' E 007°01'0 0.0
2016-May-20 11:33N 43°32' E 007°01'0 0.0
2016-May-20 10:33N 43°32' E 007°01'0 0.0
2016-May-20 09:33N 43°32' E 007°01'0 0.0
2016-May-20 08:33N 43°32' E 007°01'0 0.0
2016-May-20 07:33N 43°32' E 007°01'0 0.0
2016-May-20 06:33N 43°32' E 007°01'0 0.0
2016-May-20 05:33N 43°32' E 007°01'0 0.0
2016-May-20 04:33N 43°32' E 007°01'5 5.2
2016-May-20 03:33N 43°28' E 007°05'1211.6
2016-May-20 02:33N 43°28' E 007°21'1211.8
2016-May-20 01:33N 43°29' E 007°37'2311.6
2016-May-19 23:33N 43°29' E 008°09'1514.9
2016-May-19 22:33N 43°30' E 008°30'1716.8
2016-May-19 21:33N 43°30' E 008°53'1615.8
2016-May-19 20:33N 43°31' E 009°15'1615.6
2016-May-19 19:33N 43°31' E 009°36'1615.8
2016-May-19 18:34N 43°31' E 009°58'1413.6
2016-May-19 17:34N 43°32' E 010°17'1 1.5
2016-May-19 16:34N 43°33' E 010°18'0 0.0
2016-May-19 15:31N 43°33' E 010°18'0 0.0
2016-May-19 14:32N 43°33' E 010°18'0 0.0
2016-May-19 13:33N 43°33' E 010°18'0 0.0
2016-May-19 12:33N 43°33' E 010°18'0 0.0
2016-May-19 11:31N 43°33' E 010°18'0 0.0
2016-May-19 10:32N 43°33' E 010°18'0 0.0
2016-May-19 09:29N 43°33' E 010°18'0 0.0
2016-May-19 08:30N 43°33' E 010°18'0 0.0
2016-May-19 07:34N 43°33' E 010°18'0 0.0
2016-May-19 06:31N 43°33' E 010°18'0 0.0
2016-May-19 05:32N 43°33' E 010°18'0 0.3
2016-May-19 04:34N 43°33' E 010°18'8 8.1
2016-May-19 03:34N 43°26' E 010°12'1413.8
2016-May-19 02:33N 43°13' E 010°07'204 6.7
2016-May-17 20:15N 40°43' E 013°12'1519.5
2016-May-17 19:30N 40°40' E 013°31'1919.6
2016-May-17 18:33N 40°38' E 013°56'1817.8
2016-May-17 17:33N 40°47' E 014°16'3 3.1
2016-May-17 16:33N 40°50' E 014°16'0 0.0
2016-May-17 15:33N 40°50' E 014°16'0 0.0
2016-May-17 14:33N 40°50' E 014°16'0 0.0
2016-May-17 13:33N 40°50' E 014°16'0 0.0
2016-May-17 12:33N 40°50' E 014°16'  

Dump ship's entire track history